Wetterdaten: Woche 08.12.08 - 14.12.08 (KW50)
Datum Zeit Temp. A. Feuchte A. Luftdruck Regen Wind Richtung Taupunkt Windchill Windben
08.12.2008 00:00 4,2 C 78 % 1024,3 hPa 0,0 l/m 8,1 km/h (2 Bft) NW 0,6 C 2,7 C 20,1 km/h (4 Bft)
08.12.2008 01:00 4,0 C 74 % 1024,6 hPa 0,0 l/m 9,4 km/h (2 Bft) N-NW -0,2 C 1,5 C 20,9 km/h (4 Bft)
08.12.2008 02:00 3,9 C 75 % 1024,7 hPa 0,0 l/m 8,4 km/h (2 Bft) NW -0,1 C 2,2 C 20,1 km/h (4 Bft)
08.12.2008 03:00 3,8 C 75 % 1024,9 hPa 0,0 l/m 6,7 km/h (2 Bft) NW -0,2 C 3,4 C 17,3 km/h (3 Bft)
08.12.2008 04:00 3,6 C 75 % 1025,1 hPa 0,0 l/m 6,7 km/h (2 Bft) NW -0,3 C 3,1 C 16,9 km/h (3 Bft)
08.12.2008 05:00 3,0 C 75 % 1025,3 hPa 0,0 l/m 5,9 km/h (2 Bft) NW -1,0 C 2,7 C 13,3 km/h (3 Bft)
08.12.2008 06:00 3,0 C 76 % 1025,5 hPa 0,0 l/m 5,5 km/h (1 Bft) W-NW -0,9 C 3,0 C 13,3 km/h (3 Bft)
08.12.2008 07:00 3,3 C 80 % 1025,4 hPa 0,3 l/m 5,6 km/h (1 Bft) NW 0,1 C 3,1 C 16,1 km/h (3 Bft)
08.12.2008 08:00 2,9 C 86 % 1025,5 hPa 0,6 l/m 6,9 km/h (2 Bft) W-NW 0,7 C 2,2 C 18,9 km/h (3 Bft)
08.12.2008 09:00 2,9 C 86 % 1025,8 hPa 0,9 l/m 8,8 km/h (2 Bft) W 0,7 C 0,7 C 20,9 km/h (4 Bft)
08.12.2008 10:00 2,8 C 89 % 1026,2 hPa 0,9 l/m 8,4 km/h (2 Bft) W 1,1 C 1,0 C 22,1 km/h (4 Bft)
08.12.2008 11:00 3,4 C 84 % 1025,8 hPa 0,0 l/m 8,7 km/h (2 Bft) W-NW 0,9 C 1,3 C 20,9 km/h (4 Bft)
08.12.2008 12:00 3,9 C 82 % 1025,3 hPa 0,0 l/m 9,1 km/h (2 Bft) NW 1,1 C 1,5 C 21,3 km/h (4 Bft)
08.12.2008 13:00 4,3 C 79 % 1024,7 hPa 0,0 l/m 6,9 km/h (2 Bft) W-NW 0,9 C 3,4 C 20,5 km/h (4 Bft)
08.12.2008 14:00 4,3 C 77 % 1024,4 hPa 0,0 l/m 8,9 km/h (2 Bft) W-SW 0,6 C 2,2 C 23,3 km/h (4 Bft)
08.12.2008 15:00 4,1 C 76 % 1024,4 hPa 0,0 l/m 7,3 km/h (2 Bft) W-NW 0,3 C 3,0 C 18,1 km/h (3 Bft)
08.12.2008 16:00 4,1 C 75 % 1024,4 hPa 0,0 l/m 5,5 km/h (1 Bft) W-SW -0,0 C 4,1 C 16,5 km/h (3 Bft)
08.12.2008 17:00 4,1 C 73 % 1024,4 hPa 0,0 l/m 6,8 km/h (2 Bft) W -0,3 C 3,7 C 18,1 km/h (3 Bft)
08.12.2008 18:00 3,8 C 74 % 1024,4 hPa 0,0 l/m 5,1 km/h (1 Bft) W -0,5 C 3,8 C 15,3 km/h (3 Bft)
08.12.2008 19:00 3,4 C 74 % 1024,2 hPa 0,0 l/m 4,0 km/h (1 Bft) NW -0,7 C 3,4 C 10,9 km/h (2 Bft)
08.12.2008 20:00 3,6 C 73 % 1024,0 hPa 0,0 l/m 3,5 km/h (1 Bft) NW -0,8 C 3,6 C 8,9 km/h (2 Bft)
08.12.2008 21:00 2,8 C 74 % 1023,9 hPa 0,0 l/m 0,3 km/h (0 Bft) N -1,3 C 2,8 C 3,6 km/h (1 Bft)
08.12.2008 22:00 1,6 C 78 % 1023,7 hPa 0,0 l/m 0,0 km/h (0 Bft) N -1,9 C 1,6 C 0,4 km/h (0 Bft)
08.12.2008 23:00 0,1 C 81 % 1023,6 hPa 0,0 l/m 0,0 km/h (0 Bft) N -2,8 C 0,1 C 0,8 km/h (0 Bft)
09.12.2008 00:00 -1,1 C 84 % 1023,4 hPa 0,0 l/m 0,0 km/h (0 Bft) N -3,5 C -1,1 C 0,4 km/h (0 Bft)
09.12.2008 01:00 -1,7 C 86 % 1023,2 hPa 0,0 l/m 0,0 km/h (0 Bft) N -3,8 C -1,7 C 1,2 km/h (1 Bft)
09.12.2008 02:00 -2,2 C 87 % 1023,0 hPa 0,0 l/m 0,0 km/h (0 Bft) N -4,0 C -2,2 C 0,4 km/h (0 Bft)
09.12.2008 03:00 -2,3 C 89 % 1022,3 hPa 0,0 l/m 0,0 km/h (0 Bft) N -3,8 C -2,3 C 1,2 km/h (1 Bft)
09.12.2008 04:00 -2,7 C 89 % 1022,0 hPa 0,0 l/m 0,0 km/h (0 Bft) N -4,3 C -2,7 C 0,0 km/h (0 Bft)
09.12.2008 05:00 -3,3 C 89 % 1021,8 hPa 0,0 l/m 0,0 km/h (0 Bft) N -4,8 C -3,3 C 0,8 km/h (0 Bft)
09.12.2008 06:00 -3,8 C 89 % 1021,6 hPa 0,0 l/m 0,0 km/h (0 Bft) N -5,3 C -3,8 C 0,0 km/h (0 Bft)
09.12.2008 07:00 -4,4 C 90 % 1021,5 hPa 0,0 l/m 0,0 km/h (0 Bft) N -5,8 C -4,4 C 0,0 km/h (0 Bft)
09.12.2008 08:00 -4,2 C 90 % 1021,3 hPa 0,0 l/m 0,0 km/h (0 Bft) N -5,6 C -4,2 C 0,0 km/h (0 Bft)
09.12.2008 09:00 -2,6 C 92 % 1021,1 hPa 0,0 l/m 0,0 km/h (0 Bft) N -3,8 C -2,6 C 1,6 km/h (1 Bft)
09.12.2008 10:00 -0,9 C 91 % 1020,7 hPa 0,0 l/m 0,8 km/h (0 Bft) O-SO -2,2 C -0,9 C 3,7 km/h (1 Bft)
09.12.2008 11:00 0,0 C 89 % 1019,8 hPa 0,0 l/m 1,6 km/h (1 Bft) O -1,6 C 0,0 C 4,8 km/h (1 Bft)
09.12.2008 12:00 1,6 C 80 % 1018,9 hPa 0,0 l/m 2,4 km/h (1 Bft) O -1,5 C 1,6 C 6,4 km/h (2 Bft)
09.12.2008 13:00 2,7 C 75 % 1018,2 hPa 0,0 l/m 2,4 km/h (1 Bft) O -1,4 C 2,7 C 7,2 km/h (2 Bft)
09.12.2008 14:00 3,2 C 75 % 1017,2 hPa 0,0 l/m 1,6 km/h (1 Bft) O -0,9 C 3,2 C 4,8 km/h (1 Bft)
09.12.2008 15:00 3,1 C 76 % 1016,9 hPa 0,0 l/m 0,0 km/h (0 Bft) N -0,8 C 3,1 C 2,1 km/h (1 Bft)
09.12.2008 16:00 1,8 C 78 % 1016,9 hPa 0,0 l/m 0,3 km/h (0 Bft) N -1,7 C 1,8 C 3,2 km/h (1 Bft)
09.12.2008 17:00 -0,1 C 82 % 1017,0 hPa 0,0 l/m 0,0 km/h (0 Bft) N -2,9 C -0,1 C 1,6 km/h (1 Bft)
09.12.2008 18:00 -1,0 C 86 % 1017,4 hPa 0,0 l/m 0,0 km/h (0 Bft) N -3,1 C -1,0 C 1,6 km/h (1 Bft)
09.12.2008 19:00 -1,8 C 87 % 1017,4 hPa 0,0 l/m 0,0 km/h (0 Bft) N -3,6 C -1,8 C 0,8 km/h (0 Bft)
09.12.2008 20:00 -2,4 C 88 % 1017,1 hPa 0,0 l/m 0,1 km/h (0 Bft) N -4,2 C -2,4 C 1,2 km/h (1 Bft)
09.12.2008 21:00 -3,0 C 88 % 1016,9 hPa 0,0 l/m 0,0 km/h (0 Bft) N -4,7 C -3,0 C 0,4 km/h (0 Bft)
09.12.2008 22:00 -3,5 C 89 % 1016,4 hPa 0,0 l/m 0,0 km/h (0 Bft) N -5,0 C -3,5 C 0,0 km/h (0 Bft)
09.12.2008 23:00 -3,7 C 89 % 1016,1 hPa 0,0 l/m 0,0 km/h (0 Bft) N -5,2 C -3,7 C 0,0 km/h (0 Bft)
10.12.2008 00:00 -2,9 C 91 % 1015,5 hPa 0,0 l/m 0,0 km/h (0 Bft) N -4,3 C -2,9 C 0,8 km/h (0 Bft)
10.12.2008 01:00 -2,3 C 91 % 1015,0 hPa 0,0 l/m 0,0 km/h (0 Bft) N -3,6 C -2,3 C 0,4 km/h (0 Bft)
10.12.2008 02:00 -2,3 C 91 % 1014,8 hPa 0,0 l/m 0,1 km/h (0 Bft) N -3,6 C -2,3 C 1,2 km/h (1 Bft)
10.12.2008 03:00 -2,2 C 92 % 1014,7 hPa 0,0 l/m 0,1 km/h (0 Bft) N -3,4 C -2,2 C 1,6 km/h (1 Bft)
10.12.2008 04:00 -1,9 C 92 % 1014,4 hPa 0,0 l/m 0,3 km/h (0 Bft) N -3,0 C -1,9 C 3,2 km/h (1 Bft)
10.12.2008 05:00 -1,3 C 92 % 1014,8 hPa 0,0 l/m 0,5 km/h (0 Bft) NW -2,4 C -1,3 C 2,8 km/h (1 Bft)
10.12.2008 06:00 -1,0 C 92 % 1014,8 hPa 0,0 l/m 1,1 km/h (1 Bft) NW -2,1 C -1,0 C 3,6 km/h (1 Bft)
10.12.2008 07:00 -0,8 C 93 % 1015,0 hPa 0,0 l/m 0,0 km/h (0 Bft) N -1,9 C -0,8 C 0,8 km/h (0 Bft)
10.12.2008 08:00 -0,8 C 93 % 1015,1 hPa 0,0 l/m 0,3 km/h (0 Bft) N -1,8 C -0,8 C 2,8 km/h (1 Bft)
10.12.2008 09:00 -0,4 C 93 % 1015,4 hPa 0,0 l/m 0,2 km/h (0 Bft) N -1,5 C -0,4 C 2,4 km/h (1 Bft)
10.12.2008 10:00 -0,3 C 92 % 1015,5 hPa 0,3 l/m 0,1 km/h (0 Bft) N -1,4 C -0,3 C 2,4 km/h (1 Bft)
10.12.2008 11:00 -0,1 C 92 % 1014,8 hPa 0,0 l/m 0,0 km/h (0 Bft) N -1,2 C -0,1 C 4,0 km/h (1 Bft)
10.12.2008 12:00 0,3 C 92 % 1014,5 hPa 0,0 l/m 0,8 km/h (0 Bft) O -1,0 C 0,3 C 4,8 km/h (1 Bft)
10.12.2008 13:00 0,3 C 91 % 1014,1 hPa 0,0 l/m 0,8 km/h (0 Bft) N -1,1 C 0,3 C 6,4 km/h (2 Bft)
10.12.2008 14:00 0,5 C 90 % 1013,5 hPa 0,0 l/m 0,0 km/h (0 Bft) O-SO -1,0 C 0,5 C 4,0 km/h (1 Bft)
10.12.2008 15:00 0,0 C 89 % 1013,3 hPa 0,0 l/m 0,8 km/h (0 Bft) N -1,6 C 0,0 C 3,2 km/h (1 Bft)
10.12.2008 16:00 -0,2 C 90 % 1013,1 hPa 0,0 l/m 0,1 km/h (0 Bft) N -1,6 C -0,2 C 2,4 km/h (1 Bft)
10.12.2008 17:00 0,1 C 91 % 1012,8 hPa 0,0 l/m 0,4 km/h (0 Bft) O-NO -1,3 C 0,1 C 3,2 km/h (1 Bft)
10.12.2008 18:00 2,8 C 87 % 1011,9 hPa 0,0 l/m 8,3 km/h (2 Bft) SO 0,9 C 0,1 C 22,9 km/h (4 Bft)
10.12.2008 19:00 5,3 C 76 % 1012,8 hPa 0,0 l/m 6,5 km/h (2 Bft) S-SO 1,3 C 3,8 C 20,1 km/h (4 Bft)
10.12.2008 20:00 4,9 C 75 % 1013,3 hPa 0,0 l/m 2,0 km/h (1 Bft) O 0,8 C 4,9 C 8,1 km/h (2 Bft)
10.12.2008 21:00 4,2 C 78 % 1013,3 hPa 0,0 l/m 3,6 km/h (1 Bft) O 0,6 C 4,2 C 8,4 km/h (2 Bft)
10.12.2008 22:00 3,1 C 80 % 1013,5 hPa 0,0 l/m 5,5 km/h (1 Bft) O 0,1 C 3,1 C 12,1 km/h (2 Bft)
10.12.2008 23:00 2,4 C 83 % 1013,4 hPa 0,0 l/m 4,2 km/h (1 Bft) SO -0,2 C 2,4 C 14,5 km/h (3 Bft)
11.12.2008 00:00 2,3 C 83 % 1013,2 hPa 0,0 l/m 2,5 km/h (1 Bft) O-SO -0,3 C 2,3 C 11,3 km/h (2 Bft)
11.12.2008 01:00 2,3 C 83 % 1013,0 hPa 0,0 l/m 3,9 km/h (1 Bft) O-NO -0,3 C 2,3 C 12,5 km/h (3 Bft)
11.12.2008 02:00 2,4 C 83 % 1012,7 hPa 0,0 l/m 3,7 km/h (1 Bft) O -0,1 C 2,4 C 12,9 km/h (3 Bft)
11.12.2008 03:00 2,5 C 84 % 1012,4 hPa 0,0 l/m 1,5 km/h (1 Bft) SO 0,1 C 2,5 C 7,2 km/h (2 Bft)
11.12.2008 04:00 2,7 C 85 % 1012,0 hPa 0,0 l/m 2,1 km/h (1 Bft) SO 0,3 C 2,7 C 5,6 km/h (1 Bft)
11.12.2008 05:00 2,8 C 86 % 1011,8 hPa 0,0 l/m 3,1 km/h (1 Bft) SO 0,6 C 2,8 C 9,6 km/h (2 Bft)
11.12.2008 06:00 2,6 C 87 % 1012,0 hPa 0,0 l/m 3,2 km/h (1 Bft) O-SO 0,6 C 2,6 C 10,5 km/h (2 Bft)
11.12.2008 07:00 2,2 C 88 % 1011,9 hPa 0,0 l/m 5,4 km/h (1 Bft) O-SO 0,4 C 2,2 C 15,7 km/h (3 Bft)
11.12.2008 08:00 2,2 C 88 % 1012,1 hPa 0,0 l/m 3,9 km/h (1 Bft) O-SO 0,5 C 2,2 C 10,2 km/h (2 Bft)
11.12.2008 09:00 2,5 C 90 % 1012,1 hPa 0,0 l/m 4,0 km/h (1 Bft) O 0,9 C 2,5 C 10,5 km/h (2 Bft)
11.12.2008 10:00 2,5 C 88 % 1012,4 hPa 0,3 l/m 2,4 km/h (1 Bft) O-SO 0,6 C 2,5 C 9,7 km/h (2 Bft)
11.12.2008 11:00 2,5 C 88 % 1012,0 hPa 0,0 l/m 4,8 km/h (1 Bft) O 0,7 C 2,5 C 12,9 km/h (3 Bft)
11.12.2008 12:00 2,8 C 88 % 1011,7 hPa 0,0 l/m 2,4 km/h (1 Bft) O-SO 0,9 C 2,8 C 10,4 km/h (2 Bft)
11.12.2008 13:00 3,7 C 85 % 1011,2 hPa 0,0 l/m 4,0 km/h (1 Bft) O-SO 1,4 C 3,7 C 12,9 km/h (3 Bft)
11.12.2008 14:00 4,4 C 82 % 1011,1 hPa 0,0 l/m 6,4 km/h (2 Bft) O-SO 1,6 C 4,4 C 16,1 km/h (3 Bft)
11.12.2008 15:00 4,5 C 81 % 1011,0 hPa 0,0 l/m 1,8 km/h (1 Bft) SO 1,6 C 4,5 C 7,5 km/h (2 Bft)
11.12.2008 16:00 4,6 C 82 % 1011,1 hPa 0,0 l/m 1,0 km/h (0 Bft) O-SO 1,8 C 4,6 C 6,0 km/h (2 Bft)
11.12.2008 17:00 4,6 C 82 % 1011,2 hPa 0,0 l/m 1,7 km/h (1 Bft) O 1,8 C 4,6 C 8,4 km/h (2 Bft)
11.12.2008 18:00 4,4 C 81 % 1011,3 hPa 0,0 l/m 2,0 km/h (1 Bft) SO 1,5 C 4,4 C 7,6 km/h (2 Bft)
11.12.2008 19:00 4,3 C 82 % 1011,6 hPa 0,0 l/m 3,3 km/h (1 Bft) O-SO 1,4 C 4,3 C 8,4 km/h (2 Bft)
11.12.2008 20:00 3,8 C 84 % 1011,3 hPa 0,0 l/m 3,8 km/h (1 Bft) O 1,3 C 3,8 C 8,0 km/h (2 Bft)
11.12.2008 21:00 3,6 C 85 % 1011,0 hPa 0,0 l/m 1,5 km/h (1 Bft) O 1,3 C 3,6 C 5,2 km/h (1 Bft)
11.12.2008 22:00 3,8 C 84 % 1010,7 hPa 0,0 l/m 0,9 km/h (0 Bft) O-SO 1,3 C 3,8 C 5,6 km/h (1 Bft)
11.12.2008 23:00 4,0 C 82 % 1010,7 hPa 0,0 l/m 1,8 km/h (1 Bft) O-SO 1,2 C 4,0 C 8,1 km/h (2 Bft)
12.12.2008 00:00 3,9 C 82 % 1010,7 hPa 0,0 l/m 0,3 km/h (0 Bft) SO 1,1 C 3,9 C 2,8 km/h (1 Bft)
12.12.2008 01:00 3,7 C 82 % 1010,9 hPa 0,0 l/m 0,9 km/h (0 Bft) O-SO 0,8 C 3,7 C 5,2 km/h (1 Bft)
12.12.2008 02:00 3,7 C 81 % 1011,7 hPa 0,0 l/m 0,3 km/h (0 Bft) N 0,7 C 3,7 C 2,4 km/h (1 Bft)
12.12.2008 03:00 3,6 C 82 % 1012,2 hPa 0,0 l/m 0,4 km/h (0 Bft) SW 0,8 C 3,6 C 2,4 km/h (1 Bft)
12.12.2008 04:00 3,5 C 82 % 1012,8 hPa 0,0 l/m 2,6 km/h (1 Bft) NW 0,7 C 3,5 C 7,2 km/h (2 Bft)
12.12.2008 05:00 3,3 C 79 % 1013,2 hPa 0,0 l/m 3,8 km/h (1 Bft) W 0,1 C 3,3 C 11,3 km/h (2 Bft)
12.12.2008 06:00 3,3 C 78 % 1014,0 hPa 0,0 l/m 3,1 km/h (1 Bft) NW -0,2 C 3,3 C 9,6 km/h (2 Bft)
12.12.2008 07:00 3,3 C 77 % 1014,7 hPa 0,0 l/m 1,6 km/h (1 Bft) S-SW -0,3 C 3,3 C 7,2 km/h (2 Bft)
12.12.2008 08:00 3,1 C 78 % 1015,2 hPa 0,0 l/m 3,6 km/h (1 Bft) O-NO -0,3 C 3,1 C 10,1 km/h (2 Bft)
12.12.2008 09:00 2,8 C 81 % 1015,9 hPa 0,0 l/m 2,2 km/h (1 Bft) W-NW -0,1 C 2,8 C 8,0 km/h (2 Bft)
12.12.2008 10:00 2,9 C 80 % 1016,3 hPa 0,0 l/m 4,1 km/h (1 Bft) NW -0,3 C 2,9 C 13,7 km/h (3 Bft)
12.12.2008 11:00 2,7 C 82 % 1016,6 hPa 0,3 l/m 2,6 km/h (1 Bft) NW -0,1 C 2,7 C 7,2 km/h (2 Bft)
12.12.2008 12:00 2,3 C 86 % 1016,8 hPa 0,0 l/m 4,2 km/h (1 Bft) NW 0,1 C 2,3 C 10,1 km/h (2 Bft)
12.12.2008 13:00 2,2 C 86 % 1016,8 hPa 0,6 l/m 4,6 km/h (1 Bft) NW 0,1 C 2,2 C 10,1 km/h (2 Bft)
12.12.2008 14:00 2,1 C 86 % 1017,0 hPa 0,0 l/m 3,5 km/h (1 Bft) NW 0,0 C 2,1 C 12,1 km/h (2 Bft)
12.12.2008 15:00 2,3 C 84 % 1017,5 hPa 0,0 l/m 3,7 km/h (1 Bft) W-NW -0,1 C 2,3 C 10,9 km/h (2 Bft)
12.12.2008 16:00 2,3 C 84 % 1018,2 hPa 0,0 l/m 2,1 km/h (1 Bft) W-NW -0,1 C 2,3 C 7,2 km/h (2 Bft)
12.12.2008 17:00 2,0 C 87 % 1018,3 hPa 0,0 l/m 1,3 km/h (1 Bft) W 0,0 C 2,0 C 6,0 km/h (2 Bft)
12.12.2008 18:00 2,0 C 87 % 1018,4 hPa 0,3 l/m 1,9 km/h (1 Bft) W-NW 0,1 C 2,0 C 6,0 km/h (2 Bft)
12.12.2008 19:00 2,0 C 88 % 1018,5 hPa 0,0 l/m 2,3 km/h (1 Bft) W-SW 0,2 C 2,0 C 7,2 km/h (2 Bft)
12.12.2008 20:00 2,3 C 86 % 1018,8 hPa 0,0 l/m 2,8 km/h (1 Bft) W-SW 0,1 C 2,3 C 9,7 km/h (2 Bft)
12.12.2008 21:00 2,2 C 86 % 1019,0 hPa 0,3 l/m 1,1 km/h (1 Bft) N 0,1 C 2,2 C 6,0 km/h (2 Bft)
12.12.2008 22:00 1,9 C 87 % 1019,0 hPa 0,0 l/m 0,0 km/h (0 Bft) N 0,0 C 1,9 C 0,8 km/h (0 Bft)
12.12.2008 23:00 1,8 C 89 % 1018,8 hPa 0,0 l/m 0,7 km/h (0 Bft) N-NW 0,1 C 1,8 C 3,2 km/h (1 Bft)
13.12.2008 00:00 1,6 C 89 % 1018,3 hPa 0,3 l/m 0,3 km/h (0 Bft) N 0,0 C 1,6 C 2,0 km/h (1 Bft)
13.12.2008 01:00 1,8 C 90 % 1017,5 hPa 0,0 l/m 0,8 km/h (0 Bft) W 0,3 C 1,8 C 4,8 km/h (1 Bft)
13.12.2008 02:00 1,8 C 89 % 1017,4 hPa 0,0 l/m 0,7 km/h (0 Bft) W-SW 0,2 C 1,8 C 3,6 km/h (1 Bft)
13.12.2008 03:00 1,8 C 89 % 1016,9 hPa 0,0 l/m 0,5 km/h (0 Bft) W-SW 0,2 C 1,8 C 2,4 km/h (1 Bft)
13.12.2008 04:00 1,8 C 90 % 1016,6 hPa 0,0 l/m 0,0 km/h (0 Bft) N 0,3 C 1,8 C 0,4 km/h (0 Bft)
13.12.2008 05:00 1,8 C 90 % 1016,1 hPa 0,0 l/m 0,0 km/h (0 Bft) N 0,3 C 1,8 C 0,4 km/h (0 Bft)
13.12.2008 06:00 1,6 C 90 % 1015,5 hPa 0,0 l/m 0,0 km/h (0 Bft) N 0,2 C 1,6 C 0,0 km/h (0 Bft)
13.12.2008 07:00 1,7 C 91 % 1015,3 hPa 0,0 l/m 0,0 km/h (0 Bft) O-SO 0,3 C 1,7 C 2,0 km/h (1 Bft)
13.12.2008 08:00 1,9 C 91 % 1015,2 hPa 0,0 l/m 0,9 km/h (0 Bft) O-SO 0,6 C 1,9 C 4,4 km/h (1 Bft)
13.12.2008 09:00 2,1 C 91 % 1014,8 hPa 0,0 l/m 0,5 km/h (0 Bft) S 0,8 C 2,1 C 5,2 km/h (1 Bft)
13.12.2008 10:00 2,6 C 91 % 1014,3 hPa 0,0 l/m 0,9 km/h (0 Bft) N 1,3 C 2,6 C 6,4 km/h (2 Bft)
13.12.2008 11:00 3,0 C 91 % 1013,7 hPa 0,0 l/m 1,1 km/h (0 Bft) O 1,7 C 3,0 C 6,8 km/h (2 Bft)
13.12.2008 12:00 3,6 C 91 % 1012,9 hPa 0,0 l/m 1,4 km/h (1 Bft) O-SO 2,2 C 3,6 C 5,6 km/h (1 Bft)
13.12.2008 13:00 4,2 C 89 % 1012,1 hPa 0,0 l/m 1,8 km/h (1 Bft) O 2,5 C 4,2 C 8,0 km/h (2 Bft)
13.12.2008 14:00 4,8 C 88 % 1011,6 hPa 0,0 l/m 2,0 km/h (1 Bft) O-SO 3,0 C 4,8 C 7,6 km/h (2 Bft)
13.12.2008 15:00 5,0 C 87 % 1011,6 hPa 0,0 l/m 2,3 km/h (1 Bft) O-SO 3,0 C 5,0 C 8,9 km/h (2 Bft)
13.12.2008 16:00 4,4 C 88 % 1011,6 hPa 0,0 l/m 3,3 km/h (1 Bft) SO 2,6 C 4,4 C 11,3 km/h (2 Bft)
13.12.2008 17:00 4,6 C 88 % 1011,5 hPa 0,0 l/m 3,3 km/h (1 Bft) S-SO 2,8 C 4,6 C 12,1 km/h (2 Bft)
13.12.2008 18:00 4,9 C 87 % 1011,4 hPa 0,0 l/m 3,8 km/h (1 Bft) SO 2,9 C 4,9 C 10,9 km/h (2 Bft)
13.12.2008 19:00 5,1 C 86 % 1011,4 hPa 0,0 l/m 3,7 km/h (1 Bft) S-SO 2,9 C 5,1 C 11,3 km/h (2 Bft)
13.12.2008 20:00 5,0 C 87 % 1011,3 hPa 0,0 l/m 3,1 km/h (1 Bft) O-SO 2,9 C 5,0 C 8,9 km/h (2 Bft)
13.12.2008 21:00 4,6 C 87 % 1011,4 hPa 0,0 l/m 3,1 km/h (1 Bft) SO 2,7 C 4,6 C 10,5 km/h (2 Bft)
13.12.2008 22:00 4,1 C 89 % 1011,1 hPa 0,0 l/m 3,2 km/h (1 Bft) O-SO 2,4 C 4,1 C 12,1 km/h (2 Bft)
13.12.2008 23:00 3,7 C 89 % 1010,9 hPa 0,0 l/m 3,1 km/h (1 Bft) SO 2,1 C 3,7 C 10,5 km/h (2 Bft)
14.12.2008 00:00 3,4 C 89 % 1010,6 hPa 0,0 l/m 2,6 km/h (1 Bft) O-SO 1,8 C 3,4 C 10,9 km/h (2 Bft)
14.12.2008 01:00 3,2 C 89 % 1010,8 hPa 0,0 l/m 2,5 km/h (1 Bft) SO 1,5 C 3,2 C 8,9 km/h (2 Bft)
14.12.2008 02:00 3,3 C 89 % 1010,8 hPa 0,0 l/m 4,0 km/h (1 Bft) SO 1,6 C 3,3 C 15,3 km/h (3 Bft)
14.12.2008 03:00 3,3 C 89 % 1010,8 hPa 0,0 l/m 4,2 km/h (1 Bft) O-SO 1,7 C 3,3 C 12,9 km/h (3 Bft)
14.12.2008 04:00 2,9 C 89 % 1010,8 hPa 0,0 l/m 3,6 km/h (1 Bft) SO 1,3 C 2,9 C 12,1 km/h (2 Bft)
14.12.2008 05:00 3,1 C 91 % 1010,8 hPa 0,0 l/m 5,7 km/h (1 Bft) O 1,7 C 2,7 C 15,3 km/h (3 Bft)
14.12.2008 06:00 3,7 C 90 % 1010,9 hPa 0,0 l/m 6,6 km/h (2 Bft) SO 2,2 C 3,2 C 18,5 km/h (3 Bft)
14.12.2008 07:00 3,9 C 90 % 1011,2 hPa 0,0 l/m 4,3 km/h (1 Bft) S 2,4 C 3,9 C 13,3 km/h (3 Bft)
14.12.2008 08:00 4,2 C 90 % 1012,0 hPa 0,0 l/m 5,5 km/h (1 Bft) SO 2,7 C 4,2 C 16,9 km/h (3 Bft)
14.12.2008 09:00 4,4 C 90 % 1012,7 hPa 0,0 l/m 4,2 km/h (1 Bft) O-SO 2,8 C 4,4 C 14,1 km/h (3 Bft)
14.12.2008 10:00 4,3 C 91 % 1013,1 hPa 0,0 l/m 3,1 km/h (1 Bft) SO 2,9 C 4,3 C 12,1 km/h (2 Bft)
14.12.2008 11:00 4,3 C 91 % 1012,8 hPa 0,0 l/m 2,3 km/h (1 Bft) O-SO 2,9 C 4,3 C 8,0 km/h (2 Bft)
14.12.2008 12:00 4,3 C 91 % 1012,5 hPa 0,0 l/m 3,1 km/h (1 Bft) SO 3,0 C 4,3 C 11,3 km/h (2 Bft)
14.12.2008 13:00 4,5 C 91 % 1012,5 hPa 0,0 l/m 3,4 km/h (1 Bft) S-SO 3,1 C 4,5 C 12,5 km/h (3 Bft)
14.12.2008 14:00 4,6 C 90 % 1012,5 hPa 0,0 l/m 2,7 km/h (1 Bft) SO 3,1 C 4,6 C 10,4 km/h (2 Bft)
14.12.2008 15:00 4,7 C 90 % 1012,9 hPa 0,0 l/m 3,8 km/h (1 Bft) S-SO 3,2 C 4,7 C 13,3 km/h (3 Bft)
14.12.2008 16:00 4,7 C 90 % 1013,2 hPa 0,0 l/m 2,9 km/h (1 Bft) O 3,2 C 4,7 C 12,5 km/h (3 Bft)
14.12.2008 17:00 4,8 C 90 % 1013,6 hPa 0,0 l/m 2,7 km/h (1 Bft) O-SO 3,4 C 4,8 C 11,3 km/h (2 Bft)
14.12.2008 18:00 5,0 C 90 % 1013,8 hPa 0,0 l/m 3,1 km/h (1 Bft) SO 3,5 C 5,0 C 9,2 km/h (2 Bft)
14.12.2008 19:00 5,0 C 90 % 1014,1 hPa 0,0 l/m 3,2 km/h (1 Bft) O 3,5 C 5,0 C 11,7 km/h (2 Bft)
14.12.2008 20:00 4,9 C 90 % 1014,4 hPa 0,0 l/m 3,3 km/h (1 Bft) S-SO 3,4 C 4,9 C 12,9 km/h (3 Bft)
14.12.2008 21:00 4,5 C 90 % 1014,7 hPa 0,0 l/m 2,4 km/h (1 Bft) SO 3,0 C 4,5 C 10,5 km/h (2 Bft)
14.12.2008 22:00 4,4 C 89 % 1015,0 hPa 0,0 l/m 4,6 km/h (1 Bft) O 2,8 C 4,4 C 15,3 km/h (3 Bft)
14.12.2008 23:00 4,3 C 90 % 1015,3 hPa 0,0 l/m 5,5 km/h (1 Bft) O-SO 2,7 C 4,2 C 16,5 km/h (3 Bft)
Min-Datum _ 09.12.08 08.12.08 12.12.08 - 08.12.08 - 09.12.08 09.12.08 08.12.08
_ Min-Zeit 07:45 17:15 00:30 - 22:00 - 07:45 07:45 22:15
Minimum _ -4,6 C 73 % 1010,6 hPa - 0,0 km/h (0 Bft) - -6,0 C -4,6 C 0,0 km/h (0 Bft)
Max-Datum _ 10.12.08 10.12.08 08.12.08 08.12.08 10.12.08 - 14.12.08 10.12.08 10.12.08
_ Max-Zeit 19:15 07:30 10:15 09:45 18:45 - 18:00 19:30 18:30
Maximum _ 5,3 C 93 % 1026,3 hPa 0,9 l/m 16,0 km/h
SO (3 Bft)
- 3,5 C 5,3 C 37,0 km/h
SO (5 Bft)
Durchschnitt _ 2,2 C 85 % 1016,1 hPa #5,1 l/m 2,6 km/h (1 Bft) O-SO 0,0 C 2,1 C 8,5 km/h (2 Bft)